createdAt,value
2023-02-13T00:00:20.736Z,101929.44
2023-02-13T00:04:33.307Z,101939.84
2023-02-13T00:08:45.657Z,101938.72
2023-02-13T00:12:58.440Z,101950.44
2023-02-13T00:17:10.869Z,101952.91
2023-02-13T00:21:23.460Z,101968.25
2023-02-13T00:25:37.475Z,101949.53
2023-02-13T00:29:50.096Z,101961.72
2023-02-13T00:34:03.926Z,101963.50
2023-02-13T00:38:16.198Z,101964.34
2023-02-13T00:42:28.639Z,101965.56
2023-02-13T00:46:41.030Z,101952.78
2023-02-13T00:50:53.596Z,101962.03
2023-02-13T00:55:06.459Z,101954.69
2023-02-13T00:59:21.304Z,101947.38
2023-02-13T01:03:36.082Z,101956.53
2023-02-13T01:07:48.618Z,101972.03
2023-02-13T01:12:02.541Z,101970.28
2023-02-13T01:16:18.581Z,101959.00
2023-02-13T01:20:34.354Z,101973.22
2023-02-13T01:24:46.857Z,101980.91
2023-02-13T01:29:02.284Z,101989.69
2023-02-13T01:33:16.053Z,101975.50
2023-02-13T01:37:29.383Z,101993.72
2023-02-13T01:41:42.314Z,101985.84
2023-02-13T01:46:01.765Z,101984.50
2023-02-13T01:50:26.330Z,101989.13
2023-02-13T01:54:39.722Z,101979.81
2023-02-13T01:58:58.092Z,102000.72
2023-02-13T02:03:17.066Z,102002.47
2023-02-13T02:07:31.338Z,102012.31
2023-02-13T02:12:00.668Z,102027.81
2023-02-13T02:16:13.283Z,102021.19
2023-02-13T02:20:38.185Z,102022.22
2023-02-13T02:25:34.435Z,102021.34
2023-02-13T02:30:12.033Z,102034.31
2023-02-13T02:34:43.056Z,102034.94
2023-02-13T02:39:18.208Z,102042.00
2023-02-13T02:43:52.906Z,102031.41
2023-02-13T02:48:38.876Z,102016.72
2023-02-13T02:53:38.627Z,102039.13
2023-02-13T02:58:29.448Z,102039.84
2023-02-13T03:03:03.157Z,102045.28
2023-02-13T03:07:18.834Z,102038.88
2023-02-13T03:11:49.890Z,102041.13
2023-02-13T03:16:21.188Z,102043.22
2023-02-13T03:21:24.069Z,102044.53
2023-02-13T03:25:59.719Z,102056.41
2023-02-13T03:30:28.055Z,102056.38
2023-02-13T03:35:07.332Z,102064.78
2023-02-13T03:39:44.347Z,102068.19
2023-02-13T03:44:17.219Z,102068.53
2023-02-13T03:48:53.136Z,102076.50
2023-02-13T03:53:12.824Z,102085.00
2023-02-13T03:57:46.699Z,102087.38
2023-02-13T04:02:29.462Z,102090.03
2023-02-13T04:06:57.551Z,102094.06
2023-02-13T04:11:26.799Z,102098.72
2023-02-13T04:16:10.925Z,102103.03
2023-02-13T04:20:28.704Z,102093.91
2023-02-13T04:24:41.250Z,102103.16
2023-02-13T04:28:53.605Z,102112.25
2023-02-13T04:33:06.954Z,102104.09
2023-02-13T04:37:20.955Z,102101.16
2023-02-13T04:41:35.693Z,102123.56
2023-02-13T04:45:52.372Z,102118.94
2023-02-13T04:50:06.517Z,102128.03
2023-02-13T04:54:19.973Z,102126.41
2023-02-13T04:58:32.496Z,102124.38
2023-02-13T05:02:46.156Z,102137.78
2023-02-13T05:07:00.707Z,102130.34
2023-02-13T05:11:14.193Z,102131.56
2023-02-13T05:15:26.708Z,102135.66
2023-02-13T05:19:40.210Z,102133.75
2023-02-13T05:23:53.815Z,102138.75
2023-02-13T05:28:29.006Z,102136.47
2023-02-13T05:32:43.615Z,102140.66
2023-02-13T05:36:56.069Z,102156.50
2023-02-13T05:41:09.858Z,102158.69
2023-02-13T05:45:22.430Z,102160.19
2023-02-13T05:49:34.802Z,102147.66
2023-02-13T05:53:48.551Z,102141.09
2023-02-13T05:58:02.250Z,102158.97
2023-02-13T06:02:14.604Z,102172.31
2023-02-13T06:06:27.553Z,102183.47
2023-02-13T06:10:40.875Z,102171.50
2023-02-13T06:14:54.790Z,102182.19
2023-02-13T06:19:11.269Z,102185.91
2023-02-13T06:23:23.601Z,102184.03
2023-02-13T06:27:39.490Z,102186.38
2023-02-13T06:31:53.872Z,102187.97
2023-02-13T06:36:09.070Z,102197.03
2023-02-13T06:40:24.347Z,102209.47
2023-02-13T06:44:36.664Z,102210.69
2023-02-13T06:48:49.021Z,102205.78
2023-02-13T06:53:02.839Z,102220.69
2023-02-13T06:57:16.097Z,102210.56
2023-02-13T07:01:29.251Z,102214.44
2023-02-13T07:05:56.311Z,102202.91
2023-02-13T07:10:13.261Z,102215.28
2023-02-13T07:14:25.982Z,102218.22
2023-02-13T07:18:42.139Z,102224.84
2023-02-13T07:22:57.793Z,102215.69
2023-02-13T07:27:10.206Z,102217.91
2023-02-13T07:31:22.779Z,102221.06
2023-02-13T07:35:36.425Z,102219.72
2023-02-13T07:39:48.971Z,102212.72
2023-02-13T07:44:01.368Z,102216.06
2023-02-13T07:48:13.751Z,102221.56
2023-02-13T07:52:26.098Z,102232.34
2023-02-13T07:56:38.648Z,102216.69
2023-02-13T08:00:52.002Z,102222.59
2023-02-13T08:05:04.660Z,102229.72
2023-02-13T08:09:40.990Z,102232.63
2023-02-13T08:13:53.585Z,102230.38
2023-02-13T08:18:06.170Z,102225.72
2023-02-13T08:22:18.698Z,102236.41
2023-02-13T08:26:34.766Z,102230.28
2023-02-13T08:30:47.204Z,102218.16
2023-02-13T08:34:59.632Z,102214.97
2023-02-13T08:39:12.178Z,102214.88
2023-02-13T08:43:24.677Z,102216.22
2023-02-13T08:47:37.057Z,102216.56
2023-02-13T08:51:50.216Z,102211.50
2023-02-13T08:56:02.579Z,102215.53
2023-02-13T09:00:15.488Z,102223.69
2023-02-13T09:04:28.424Z,102218.31
2023-02-13T09:08:43.612Z,102216.41
2023-02-13T09:12:56.006Z,102219.94
2023-02-13T09:17:08.716Z,102219.06
2023-02-13T09:21:25.755Z,102226.81
2023-02-13T09:25:38.096Z,102222.84
2023-02-13T09:29:50.361Z,102226.22
2023-02-13T09:34:02.689Z,102218.56
2023-02-13T09:38:15.035Z,102222.25
2023-02-13T09:42:31.864Z,102207.69
2023-02-13T09:46:44.764Z,102210.84
2023-02-13T09:50:59.064Z,102219.16
2023-02-13T09:55:20.120Z,102205.94
2023-02-13T10:00:17.781Z,102194.63
2023-02-13T10:04:53.029Z,102192.53
2023-02-13T10:09:17.219Z,102181.59
2023-02-13T10:14:00.479Z,102182.63
2023-02-13T10:18:19.915Z,102184.44
2023-02-13T10:22:47.382Z,102197.41
2023-02-13T10:27:05.408Z,102184.22
2023-02-13T10:31:23.184Z,102171.00
2023-02-13T10:35:35.680Z,102177.44
2023-02-13T10:39:54.351Z,102179.88
2023-02-13T10:44:36.925Z,102166.50
2023-02-13T10:49:05.382Z,102165.84
2023-02-13T10:53:32.589Z,102165.00
2023-02-13T10:57:58.098Z,102166.88
2023-02-13T11:02:26.768Z,102156.44
2023-02-13T11:06:48.749Z,102145.81
2023-02-13T11:11:02.184Z,102146.78
2023-02-13T11:15:40.898Z,102141.47
2023-02-13T11:20:00.114Z,102139.66
2023-02-13T11:24:24.849Z,102137.06
2023-02-13T11:28:45.776Z,102129.84
2023-02-13T11:33:05.457Z,102121.69
2023-02-13T11:37:27.784Z,102118.03
2023-02-13T11:41:44.284Z,102121.66
2023-02-13T11:46:05.910Z,102121.53
2023-02-13T11:50:38.045Z,102102.00
2023-02-13T11:54:57.555Z,102093.22
2023-02-13T11:59:14.571Z,102096.78
2023-02-13T12:03:32.619Z,102093.97
2023-02-13T12:07:46.471Z,102094.00
2023-02-13T12:12:05.376Z,102086.50
2023-02-13T12:16:34.350Z,102078.56
2023-02-13T12:21:01.781Z,102083.53
2023-02-13T12:25:49.056Z,102075.47
2023-02-13T12:30:16.576Z,102062.19
2023-02-13T12:34:53.729Z,102058.66
2023-02-13T12:39:35.372Z,102059.47
2023-02-13T12:44:14.791Z,102041.63
2023-02-13T12:48:36.749Z,102031.00
2023-02-13T12:53:27.500Z,102035.28
2023-02-13T12:57:43.083Z,102023.56
2023-02-13T13:01:55.458Z,102020.25
2023-02-13T13:06:31.145Z,102017.34
2023-02-13T13:11:07.192Z,102014.72
2023-02-13T13:15:43.935Z,102012.09
2023-02-13T13:20:15.376Z,102012.72
2023-02-13T13:24:46.406Z,102003.88
2023-02-13T13:29:01.910Z,102001.13
2023-02-13T13:33:22.672Z,101999.41
2023-02-13T13:38:02.836Z,102004.81
2023-02-13T13:42:39.688Z,101999.50
2023-02-13T13:47:11.965Z,101995.88
2023-02-13T13:51:24.967Z,102001.16
2023-02-13T13:56:18.577Z,102009.00
2023-02-13T14:00:34.372Z,102001.09
2023-02-13T14:05:08.289Z,101996.69
2023-02-13T14:09:28.656Z,101993.72
2023-02-13T14:13:43.456Z,101996.13
2023-02-13T14:17:56.830Z,101995.09
2023-02-13T14:22:32.955Z,101994.34
2023-02-13T14:27:04.796Z,101995.13
2023-02-13T14:31:24.429Z,101992.44
2023-02-13T14:35:39.028Z,101985.28
2023-02-13T14:40:20.911Z,101975.28
2023-02-13T14:44:33.840Z,101977.03
2023-02-13T14:48:53.604Z,101978.66
2023-02-13T14:53:17.986Z,101978.69
2023-02-13T14:57:38.413Z,101981.19
2023-02-13T15:01:58.126Z,101981.00
2023-02-13T15:06:26.148Z,101978.25
2023-02-13T15:10:50.740Z,101985.28
2023-02-13T15:15:22.990Z,102002.84
2023-02-13T15:19:44.166Z,101989.47
2023-02-13T15:23:58.170Z,101987.13
2023-02-13T15:28:24.928Z,101989.72
2023-02-13T15:32:39.893Z,101995.00
2023-02-13T15:36:52.879Z,101990.47
2023-02-13T15:41:30.566Z,101992.03
2023-02-13T15:45:44.372Z,101998.91
2023-02-13T15:49:57.395Z,101998.72
2023-02-13T15:54:24.876Z,101998.44
2023-02-13T15:58:37.559Z,102006.19
2023-02-13T16:02:51.681Z,102007.72
2023-02-13T16:07:04.187Z,102003.06
2023-02-13T16:11:25.476Z,102010.69
2023-02-13T16:15:38.205Z,102014.00
2023-02-13T16:20:02.759Z,102021.75
2023-02-13T16:24:17.190Z,102018.41
2023-02-13T16:28:32.980Z,102030.75
2023-02-13T16:32:46.621Z,102031.28
2023-02-13T16:37:00.105Z,102038.28
2023-02-13T16:41:18.330Z,102034.91
2023-02-13T16:45:30.654Z,102045.19
2023-02-13T16:49:55.427Z,102033.19
2023-02-13T16:54:46.003Z,102032.34
2023-02-13T16:59:36.399Z,102044.56
2023-02-13T17:03:50.125Z,102032.88
2023-02-13T17:08:02.692Z,102049.78
2023-02-13T17:12:19.443Z,102040.25
2023-02-13T17:16:31.885Z,102048.88
2023-02-13T17:20:45.710Z,102057.09
2023-02-13T17:24:58.901Z,102064.53
2023-02-13T17:29:11.397Z,102062.44
2023-02-13T17:33:30.248Z,102056.78
2023-02-13T17:37:44.204Z,102068.78
2023-02-13T17:41:56.593Z,102075.94
2023-02-13T17:46:09.111Z,102073.97
2023-02-13T17:50:22.122Z,102085.25
2023-02-13T17:54:35.645Z,102075.56
2023-02-13T17:58:48.222Z,102075.84
2023-02-13T18:03:02.032Z,102078.47
2023-02-13T18:07:18.138Z,102067.00
2023-02-13T18:11:30.761Z,102069.72
2023-02-13T18:15:45.370Z,102070.28
2023-02-13T18:19:58.324Z,102079.97
2023-02-13T18:24:10.848Z,102072.88
2023-02-13T18:28:24.672Z,102061.31
2023-02-13T18:32:37.007Z,102074.78
2023-02-13T18:36:50.141Z,102071.53
2023-02-13T18:41:04.606Z,102067.84
2023-02-13T18:45:17.027Z,102055.81
2023-02-13T18:49:29.425Z,102062.63
2023-02-13T18:53:42.857Z,102059.09
2023-02-13T18:57:56.625Z,102058.06
2023-02-13T19:02:10.629Z,102052.09
2023-02-13T19:06:25.727Z,102052.94
2023-02-13T19:10:38.215Z,102075.50
2023-02-13T19:14:50.546Z,102072.03
2023-02-13T19:19:06.380Z,102064.50
2023-02-13T19:23:18.818Z,102071.84
2023-02-13T19:27:31.234Z,102076.28
2023-02-13T19:31:45.846Z,102068.16
2023-02-13T19:36:12.274Z,102069.25
2023-02-13T19:40:26.921Z,102083.16
2023-02-13T19:44:39.345Z,102086.22
2023-02-13T19:48:52.150Z,102081.19
2023-02-13T19:53:06.120Z,102080.94
2023-02-13T19:57:18.630Z,102079.81
2023-02-13T20:01:31.738Z,102078.84
2023-02-13T20:05:44.186Z,102075.19
2023-02-13T20:09:56.603Z,102071.13
2023-02-13T20:14:23.793Z,102076.91
2023-02-13T20:18:38.106Z,102082.13
2023-02-13T20:22:50.448Z,102078.94
2023-02-13T20:27:02.880Z,102083.22
2023-02-13T20:31:17.889Z,102073.31
2023-02-13T20:35:30.300Z,102070.81
2023-02-13T20:39:44.940Z,102070.59
2023-02-13T20:44:06.066Z,102072.72
2023-02-13T20:48:18.667Z,102066.22
2023-02-13T20:52:31.114Z,102069.00
2023-02-13T20:56:45.484Z,102064.81
2023-02-13T21:00:58.229Z,102060.59
2023-02-13T21:05:11.075Z,102058.22
2023-02-13T21:09:23.636Z,102057.06
2023-02-13T21:13:39.209Z,102057.69
2023-02-13T21:17:51.714Z,102059.28
2023-02-13T21:22:13.063Z,102052.97
2023-02-13T21:26:28.778Z,102058.41
2023-02-13T21:30:41.372Z,102049.53
2023-02-13T21:34:56.035Z,102034.72
2023-02-13T21:39:09.848Z,102040.88
2023-02-13T21:43:23.517Z,102043.13
2023-02-13T21:47:35.865Z,102046.88
2023-02-13T21:51:49.874Z,102039.72
2023-02-13T21:56:04.158Z,102042.03
2023-02-13T22:00:16.989Z,102034.03
2023-02-13T22:04:30.122Z,102036.66
2023-02-13T22:08:44.182Z,102026.94
2023-02-13T22:12:56.447Z,102019.50
2023-02-13T22:17:09.110Z,102015.78
2023-02-13T22:21:24.195Z,102016.63
2023-02-13T22:25:36.626Z,102015.34
2023-02-13T22:29:51.358Z,102005.75
2023-02-13T22:34:06.359Z,101998.94
2023-02-13T22:38:18.828Z,102010.97
2023-02-13T22:42:31.989Z,101996.94
2023-02-13T22:46:46.434Z,101988.00
2023-02-13T22:51:05.385Z,102000.06
2023-02-13T22:55:17.815Z,101989.94
2023-02-13T22:59:40.245Z,101995.09
2023-02-13T23:03:52.979Z,101985.94
2023-02-13T23:08:05.512Z,101967.34
2023-02-13T23:12:36.573Z,101974.81
2023-02-13T23:17:11.195Z,101982.19
2023-02-13T23:21:26.165Z,101951.69
2023-02-13T23:25:40.347Z,101951.22
2023-02-13T23:29:54.074Z,101959.28
2023-02-13T23:34:06.465Z,101968.50
2023-02-13T23:38:19.993Z,101955.09
2023-02-13T23:42:32.400Z,101965.47
2023-02-13T23:46:45.044Z,101952.63
2023-02-13T23:50:57.738Z,101944.41
2023-02-13T23:55:10.155Z,101962.81
2023-02-13T23:59:24.187Z,101954.97
